Time;durP1;ratioP1;P1;durP2;ratioP2;P2;SDS_P1;SDS_P2;PMS_P1;PMS_P2;Temp;Humidity;BMP_temperature;BMP_pressure;BME280_temperature;BME280_humidity;BME280_pressure;Samples;Min_cycle;Max_cycle;Signal;HPM_P1;HPM_P2
2021/05/05 00:01:56;;;;;;;3.95;1.95;;;9.60;66.20;;;;;;5070935;28;20095;-67
2021/05/05 00:04:22;;;;;;;;;;;9.60;66.20;;;;;;5071261;28;20024;-66
2021/05/05 00:06:48;;;;;;;5.78;2.45;;;9.50;66.50;;;;;;5074410;28;19904;-67
2021/05/05 00:09:17;;;;;;;6.72;2.03;;;9.50;67.10;;;;;;5074572;28;20103;-67
2021/05/05 00:11:43;;;;;;;5.18;1.98;;;9.60;67.20;;;;;;5072922;28;20558;-67
2021/05/05 00:14:12;;;;;;;6.60;2.60;;;9.50;66.40;;;;;;5074407;28;20429;-67
2021/05/05 00:16:38;;;;;;;7.55;3.05;;;9.50;66.90;;;;;;5073343;28;20575;-66
2021/05/05 00:19:04;;;;;;;6.68;3.08;;;9.40;67.60;;;;;;5073886;28;20056;-67
2021/05/05 00:21:30;;;;;;;7.35;2.88;;;9.50;67.30;;;;;;5073386;28;20017;-67
2021/05/05 00:23:55;;;;;;;3.88;1.42;;;9.40;67.40;;;;;;5073221;28;20504;-67
2021/05/05 00:26:23;;;;;;;7.43;2.38;;;9.50;67.10;;;;;;5074007;28;20031;-66
2021/05/05 00:28:49;;;;;;;3.60;1.38;;;9.60;66.80;;;;;;5074387;28;20486;-67
2021/05/05 00:31:16;;;;;;;6.30;1.95;;;9.60;66.40;;;;;;5074043;28;20468;-66
2021/05/05 00:33:42;;;;;;;4.90;1.50;;;9.50;66.90;;;;;;5074087;28;20115;-67
2021/05/05 00:36:08;;;;;;;5.30;2.35;;;9.50;66.90;;;;;;5073803;28;20107;-66
2021/05/05 00:38:33;;;;;;;6.07;2.55;;;9.50;66.70;;;;;;5074034;28;20033;-65
2021/05/05 00:40:59;;;;;;;6.20;2.35;;;9.50;66.50;;;;;;5073707;28;20042;-66
2021/05/05 00:43:24;;;;;;;4.93;2.47;;;9.50;66.70;;;;;;5073920;28;20044;-66
2021/05/05 00:45:50;;;;;;;3.75;1.58;;;9.40;67.10;;;;;;5073772;28;20064;-66
2021/05/05 00:48:15;;;;;;;6.68;1.85;;;9.40;66.90;;;;;;5073594;28;20029;-66
2021/05/05 00:50:41;;;;;;;4.05;1.58;;;9.40;67.00;;;;;;5072656;28;20020;-66
2021/05/05 00:53:07;;;;;;;6.97;3.03;;;9.50;67.00;;;;;;5073805;28;20051;-66
2021/05/05 00:55:32;;;;;;;5.43;2.00;;;9.50;67.20;;;;;;5073526;28;20028;-66
2021/05/05 00:57:58;;;;;;;4.32;1.88;;;9.50;66.30;;;;;;5068122;28;20021;-66
2021/05/05 01:00:24;;;;;;;3.00;1.40;;;9.50;66.70;;;;;;5053654;28;20032;-66
2021/05/05 01:02:50;;;;;;;6.57;2.00;;;9.50;66.60;;;;;;5053556;28;20021;-66
2021/05/05 01:05:16;;;;;;;2.72;0.90;;;9.50;66.20;;;;;;5052383;28;20043;-66
2021/05/05 01:07:42;;;;;;;9.50;3.38;;;9.40;66.20;;;;;;5053245;28;20402;-67
2021/05/05 01:10:11;;;;;;;6.88;2.15;;;9.30;67.50;;;;;;5053420;28;20479;-66
2021/05/05 01:12:37;;;;;;;7.55;2.60;;;9.30;66.60;;;;;;5052070;28;20033;-66
2021/05/05 01:15:05;;;;;;;7.60;3.08;;;9.20;67.40;;;;;;5052978;28;20025;-66
2021/05/05 01:17:32;;;;;;;7.40;2.03;;;9.20;67.70;;;;;;5052960;28;20021;-66
2021/05/05 01:19:58;;;;;;;4.68;1.33;;;9.20;67.60;;;;;;5053225;28;20092;-66
2021/05/05 01:22:24;;;;;;;3.00;1.40;;;9.10;67.70;;;;;;5053184;28;20144;-66
2021/05/05 01:24:49;;;;;;;8.25;2.30;;;9.00;68.10;;;;;;5051697;28;20510;-66
2021/05/05 01:27:15;;;;;;;8.68;2.08;;;9.00;68.20;;;;;;5051598;28;20044;-66
2021/05/05 01:29:41;;;;;;;7.32;1.77;;;9.00;67.70;;;;;;5053279;28;20546;-66
2021/05/05 01:32:06;;;;;;;5.32;1.58;;;9.00;68.00;;;;;;5052950;28;20109;-66
2021/05/05 01:34:35;;;;;;;6.13;1.52;;;8.80;68.70;;;;;;5052935;28;20116;-66
2021/05/05 01:37:02;;;;;;;5.32;1.60;;;8.80;68.40;;;;;;5052690;28;20027;-65
2021/05/05 01:39:28;;;;;;;5.88;1.55;;;8.80;68.60;;;;;;5052635;28;20200;-67
2021/05/05 01:41:54;;;;;;;5.43;1.10;;;8.70;69.00;;;;;;5036020;28;20078;-66
2021/05/05 01:44:33;;;;;;;4.60;1.67;;;8.60;68.80;;;;;;5052765;28;20025;-66
2021/05/05 01:46:59;;;;;;;6.07;2.33;;;8.60;69.20;;;;;;5052454;28;20029;-66
2021/05/05 01:49:26;;;;;;;6.07;2.00;;;8.60;69.90;;;;;;5051427;28;20387;-65
2021/05/05 01:51:55;;;;;;;5.95;2.47;;;8.60;69.00;;;;;;5052554;28;20483;-67
2021/05/05 01:54:24;;;;;;;6.18;1.95;;;8.60;70.10;;;;;;5052564;28;20021;-66
2021/05/05 01:56:50;;;;;;;5.00;2.20;;;8.60;69.00;;;;;;5052184;28;20051;-65
2021/05/05 01:59:15;;;;;;;5.18;2.08;;;8.60;69.60;;;;;;5051875;28;20021;-66
2021/05/05 02:01:41;;;;;;;10.90;2.72;;;8.60;69.00;;;;;;5052455;28;20100;-66
2021/05/05 02:04:07;;;;;;;7.63;2.50;;;8.60;69.50;;;;;;5052470;28;20501;-66
2021/05/05 02:06:35;;;;;;;5.38;1.38;;;8.70;69.10;;;;;;5052041;28;20384;-66
2021/05/05 02:09:01;;;;;;;6.70;1.77;;;8.60;69.30;;;;;;5052394;28;20518;-66
2021/05/05 02:11:27;;;;;;;7.05;1.65;;;8.60;69.20;;;;;;5052333;28;20025;-66
2021/05/05 02:13:55;;;;;;;8.10;2.30;;;8.60;69.10;;;;;;5052298;28;20055;-66
2021/05/05 02:16:21;;;;;;;3.55;1.20;;;8.50;70.20;;;;;;5051852;28;20036;-66
2021/05/05 02:18:47;;;;;;;6.25;1.70;;;8.50;69.50;;;;;;5052069;28;20398;-65
2021/05/05 02:21:13;;;;;;;5.40;1.13;;;8.40;70.20;;;;;;5052023;28;20478;-66
2021/05/05 02:23:39;;;;;;;3.97;1.65;;;8.50;69.80;;;;;;5052035;28;20025;-66
2021/05/05 02:26:05;;;;;;;4.32;1.58;;;8.40;70.30;;;;;;5051878;28;20343;-66
2021/05/05 02:28:31;;;;;;;3.42;1.23;;;8.30;70.40;;;;;;5051442;28;20027;-66
2021/05/05 02:30:58;;;;;;;5.22;1.58;;;8.30;70.60;;;;;;5051767;28;20025;-66
2021/05/05 02:33:24;;;;;;;4.25;1.63;;;8.20;70.80;;;;;;5050493;28;20025;-66
2021/05/05 02:35:50;;;;;;;3.75;1.10;;;8.20;71.00;;;;;;5051731;28;20111;-66
2021/05/05 02:38:15;;;;;;;6.63;1.60;;;8.20;71.10;;;;;;5050367;28;20525;-67
2021/05/05 02:40:42;;;;;;;5.72;2.00;;;8.10;71.20;;;;;;5051598;28;20040;-67
2021/05/05 02:43:07;;;;;;;6.25;1.70;;;8.00;71.50;;;;;;5051837;28;20399;-67
2021/05/05 02:45:33;;;;;;;6.32;1.25;;;8.00;71.60;;;;;;5051705;28;20029;-67
2021/05/05 02:47:58;;;;;;;4.90;1.30;;;7.90;71.80;;;;;;5051437;28;20029;-67
2021/05/05 02:50:24;;;;;;;5.55;1.83;;;7.90;72.20;;;;;;5051569;28;20033;-66
2021/05/05 02:52:50;;;;;;;5.13;1.30;;;7.90;71.90;;;;;;5051579;28;20051;-66
2021/05/05 02:55:15;;;;;;;6.50;1.27;;;8.10;71.20;;;;;;5050348;28;20029;-67
2021/05/05 02:57:41;;;;;;;4.88;1.98;;;8.10;71.20;;;;;;5053929;28;20020;-67
2021/05/05 03:00:08;;;;;;;4.95;1.65;;;8.10;71.50;;;;;;5070130;28;20016;-67
2021/05/05 03:02:34;;;;;;;4.18;1.42;;;8.20;71.10;;;;;;5070111;28;20021;-67
2021/05/05 03:04:59;;;;;;;2.65;1.27;;;8.30;70.60;;;;;;5071568;28;20368;-67
2021/05/05 03:07:25;;;;;;;3.00;1.30;;;8.30;70.30;;;;;;5071398;28;20461;-67
2021/05/05 03:09:51;;;;;;;6.50;2.38;;;8.40;69.90;;;;;;5071554;28;20339;-67
2021/05/05 03:12:17;;;;;;;4.85;1.50;;;8.50;70.10;;;;;;5071520;28;20063;-66
2021/05/05 03:14:42;;;;;;;4.28;1.50;;;8.60;69.30;;;;;;5069968;28;20482;-67
2021/05/05 03:17:08;;;;;;;709.30;513.67;;;8.50;68.90;;;;;;5071074;28;20028;-67
2021/05/05 03:19:33;;;;;;;23.40;10.50;;;8.50;69.40;;;;;;5071151;28;20031;-66
2021/05/05 03:22:00;;;;;;;10.07;2.53;;;8.60;69.00;;;;;;5071316;28;20104;-66
2021/05/05 03:24:26;;;;;;;5.57;1.70;;;8.60;69.40;;;;;;5071188;28;20028;-66
2021/05/05 03:26:51;;;;;;;5.55;2.15;;;8.60;68.90;;;;;;5071058;28;20025;-66
2021/05/05 03:29:17;;;;;;;1.98;0.90;;;8.60;69.00;;;;;;5071426;28;20044;-66
2021/05/05 03:31:43;;;;;;;10.38;3.53;;;8.60;68.50;;;;;;5069725;28;20394;-66
2021/05/05 03:34:09;;;;;;;153.82;71.18;;;8.70;68.20;;;;;;5071172;28;20025;-66
2021/05/05 03:36:34;;;;;;;7.28;2.92;;;8.70;67.60;;;;;;5070978;28;20017;-66
2021/05/05 03:39:02;;;;;;;3.30;1.42;;;8.90;68.00;;;;;;5071811;28;20461;-66
2021/05/05 03:41:29;;;;;;;2.35;1.05;;;8.90;66.70;;;;;;5074876;28;20059;-66
2021/05/05 03:43:55;;;;;;;2.10;1.00;;;8.90;66.30;;;;;;5074860;28;20393;-66
2021/05/05 03:46:20;;;;;;;4.53;1.17;;;9.00;66.40;;;;;;5073286;28;20115;-66
2021/05/05 03:48:46;;;;;;;3.00;1.52;;;9.00;66.30;;;;;;5073664;28;20150;-66
2021/05/05 03:51:12;;;;;;;6.28;2.08;;;9.00;67.30;;;;;;5074728;28;20020;-66
2021/05/05 03:53:38;;;;;;;5.53;1.75;;;9.10;66.10;;;;;;5074779;28;20028;-66
2021/05/05 03:56:04;;;;;;;7.68;3.10;;;9.10;65.90;;;;;;5074366;28;20074;-66
2021/05/05 03:58:29;;;;;;;5.75;1.40;;;9.10;65.70;;;;;;5064957;28;20028;-67
2021/05/05 04:00:55;;;;;;;7.95;1.50;;;9.20;65.70;;;;;;5054542;28;20025;-67
2021/05/05 04:03:21;;;;;;;5.20;1.55;;;9.20;65.40;;;;;;5060440;28;20017;-67
2021/05/05 04:05:46;;;;;;;8.35;3.17;;;9.30;65.50;;;;;;5064531;28;20111;-67
2021/05/05 04:08:12;;;;;;;3.63;1.10;;;9.20;66.20;;;;;;5064205;28;20059;-68
2021/05/05 04:10:38;;;;;;;4.57;1.95;;;9.20;65.50;;;;;;5056090;28;20020;-67
2021/05/05 04:13:03;;;;;;;5.72;1.88;;;9.20;65.80;;;;;;5054436;28;20079;-67
2021/05/05 04:15:30;;;;;;;3.33;1.75;;;9.20;66.70;;;;;;5054333;28;20650;-67
2021/05/05 04:17:55;;;;;;;4.50;1.73;;;9.20;66.30;;;;;;5054236;28;20017;-67
2021/05/05 04:20:21;;;;;;;10.10;2.15;;;9.20;66.30;;;;;;5054462;28;20154;-68
2021/05/05 04:22:48;;;;;;;3.15;1.20;;;9.20;66.40;;;;;;5054441;28;20025;-67
2021/05/05 04:25:16;;;;;;;7.18;2.90;;;9.30;65.90;;;;;;5054501;28;20051;-67
2021/05/05 04:27:42;;;;;;;3.58;1.45;;;9.30;66.00;;;;;;5053869;28;20453;-67
2021/05/05 04:30:10;;;;;;;7.85;2.72;;;9.50;65.30;;;;;;5053931;28;20059;-67
2021/05/05 04:32:36;;;;;;;3.85;1.92;;;9.60;65.50;;;;;;5054082;28;20040;-67
2021/05/05 04:35:02;;;;;;;5.88;1.58;;;9.70;64.90;;;;;;5053901;28;20032;-67
2021/05/05 04:37:27;;;;;;;3.47;1.45;;;9.90;64.30;;;;;;5053678;28;20021;-67
2021/05/05 04:39:53;;;;;;;4.07;1.30;;;9.90;63.80;;;;;;5053724;28;20035;-67
2021/05/05 04:42:18;;;;;;;3.13;1.45;;;10.00;63.40;;;;;;5053580;28;20013;-67
2021/05/05 04:44:44;;;;;;;7.68;2.15;;;10.20;63.00;;;;;;5052648;28;20025;-67
2021/05/05 04:47:09;;;;;;;6.78;2.38;;;10.40;63.00;;;;;;5053650;28;20104;-67
2021/05/05 04:49:35;;;;;;;4.25;1.80;;;10.90;62.10;;;;;;5053159;28;20387;-67
2021/05/05 04:52:01;;;;;;;4.00;1.42;;;11.30;59.70;;;;;;5053481;28;20148;-67
2021/05/05 04:54:26;;;;;;;5.32;1.75;;;11.40;58.00;;;;;;5053321;28;20104;-67
2021/05/05 04:56:52;;;;;;;6.30;2.33;;;11.50;58.30;;;;;;5052062;28;20479;-68
2021/05/05 04:59:17;;;;;;;4.60;1.83;;;11.60;58.20;;;;;;5068844;28;20096;-68
2021/05/05 05:01:45;;;;;;;3.17;1.45;;;11.60;57.40;;;;;;5072903;28;20020;-68
2021/05/05 05:04:11;;;;;;;5.78;2.17;;;11.50;57.50;;;;;;5051991;28;20028;-68
2021/05/05 05:06:39;;;;;;;5.32;2.00;;;11.40;58.10;;;;;;5049119;28;20017;-68
2021/05/05 05:09:05;;;;;;;3.75;1.38;;;11.30;58.30;;;;;;5052894;28;20021;-69
2021/05/05 05:11:30;;;;;;;6.00;1.50;;;11.40;57.90;;;;;;5052948;28;20025;-67
2021/05/05 05:13:56;;;;;;;2.88;1.60;;;11.40;57.20;;;;;;5053075;28;20123;-67
2021/05/05 05:16:21;;;;;;;6.47;2.17;;;11.50;58.00;;;;;;5034651;28;20032;-67
2021/05/05 05:18:48;;;;;;;4.88;1.58;;;11.50;56.80;;;;;;5053092;28;20024;-67
2021/05/05 05:21:13;;;;;;;5.20;1.52;;;11.40;57.10;;;;;;5051375;28;20025;-67
2021/05/05 05:23:39;;;;;;;4.60;1.27;;;11.40;56.60;;;;;;5051448;28;20375;-67
2021/05/05 05:26:04;;;;;;;3.97;1.33;;;11.20;56.90;;;;;;5052212;28;20467;-67
2021/05/05 05:28:30;;;;;;;3.38;1.30;;;11.10;57.20;;;;;;5052841;28;20413;-67
2021/05/05 05:30:56;;;;;;;5.72;1.65;;;10.90;58.20;;;;;;5052820;28;20021;-67
2021/05/05 05:33:21;;;;;;;6.40;2.53;;;10.90;58.70;;;;;;5047599;28;20043;-67
2021/05/05 05:35:47;;;;;;;7.50;2.30;;;10.90;59.10;;;;;;5035221;28;20021;-68
2021/05/05 05:38:12;;;;;;;10.35;1.52;;;10.80;58.50;;;;;;5031052;28;20025;-67
2021/05/05 05:40:39;;;;;;;5.45;1.90;;;10.80;58.30;;;;;;5032407;28;20472;-67
2021/05/05 05:43:05;;;;;;;5.45;1.60;;;10.90;58.40;;;;;;5032642;28;20105;-67
2021/05/05 05:45:30;;;;;;;2.75;1.60;;;10.90;59.40;;;;;;5031852;28;20061;-67
2021/05/05 05:47:56;;;;;;;5.50;1.88;;;11.00;57.60;;;;;;5069341;28;20020;-67
2021/05/05 05:50:22;;;;;;;3.28;1.45;;;11.00;57.30;;;;;;5069545;28;20032;-68
2021/05/05 05:52:48;;;;;;;4.85;1.38;;;11.10;57.10;;;;;;5070057;28;20024;-66
2021/05/05 05:55:16;;;;;;;7.05;1.40;;;11.20;56.40;;;;;;5068943;28;20389;-67
2021/05/05 05:57:43;;;;;;;2.45;1.73;;;11.40;55.40;;;;;;5068735;28;20012;-67
2021/05/05 06:00:13;;;;;;;8.15;2.30;;;11.50;55.70;;;;;;5070318;28;20060;-66
2021/05/05 06:02:38;;;;;;;5.07;1.75;;;11.50;55.10;;;;;;5069462;28;20406;-67
2021/05/05 06:05:06;;;;;;;4.78;2.08;;;11.70;55.20;;;;;;5072327;28;20032;-67
2021/05/05 06:07:31;;;;;;;4.82;1.92;;;11.70;54.10;;;;;;5071777;28;20094;-67
2021/05/05 06:09:57;;;;;;;7.80;2.90;;;12.00;52.70;;;;;;5070723;28;20482;-67
2021/05/05 06:12:22;;;;;;;7.75;1.30;;;12.10;52.60;;;;;;5070559;28;20028;-67
2021/05/05 06:14:48;;;;;;;5.53;1.42;;;12.10;52.10;;;;;;5071723;28;20028;-68
2021/05/05 06:17:14;;;;;;;3.90;1.00;;;12.10;51.60;;;;;;5071518;28;20016;-67
2021/05/05 06:19:39;;;;;;;7.13;2.25;;;12.20;50.90;;;;;;5070308;28;20025;-67
2021/05/05 06:22:05;;;;;;;10.15;1.88;;;12.30;51.50;;;;;;5071748;28;20482;-68
2021/05/05 06:24:31;;;;;;;5.55;1.77;;;12.50;50.70;;;;;;5071596;28;20093;-68
2021/05/05 06:26:56;;;;;;;7.28;1.90;;;13.00;49.60;;;;;;5070258;28;20049;-67
2021/05/05 06:29:22;;;;;;;6.07;1.52;;;13.60;48.20;;;;;;5071575;28;20013;-68
2021/05/05 06:31:47;;;;;;;7.43;1.95;;;13.70;46.10;;;;;;5071284;28;20024;-67
2021/05/05 06:34:15;;;;;;;5.28;1.20;;;13.50;47.40;;;;;;5071076;28;20082;-67
2021/05/05 06:36:41;;;;;;;5.15;1.60;;;13.30;48.90;;;;;;5071024;28;20021;-68
2021/05/05 06:39:08;;;;;;;4.28;1.50;;;13.20;48.80;;;;;;5071543;28;20031;-68
2021/05/05 06:41:35;;;;;;;13.52;2.17;;;13.20;47.50;;;;;;5071494;28;20032;-68
2021/05/05 06:44:01;;;;;;;7.60;1.35;;;13.30;48.10;;;;;;5070164;28;20021;-70
2021/05/05 06:46:29;;;;;;;6.40;2.20;;;13.50;47.80;;;;;;5071253;28;20028;-68
2021/05/05 06:48:56;;;;;;;4.43;1.42;;;13.80;46.00;;;;;;5071364;28;20292;-68
2021/05/05 06:51:21;;;;;;;35.15;19.95;;;14.10;46.60;;;;;;5071254;28;20035;-67
2021/05/05 06:53:47;;;;;;;65.03;35.88;;;14.90;45.10;;;;;;5070122;28;20029;-68
2021/05/05 06:56:12;;;;;;;13.13;6.15;;;15.20;44.10;;;;;;5070627;28;20027;-66
2021/05/05 06:58:38;;;;;;;40.35;25.60;;;15.30;44.00;;;;;;5060423;28;20039;-68
2021/05/05 07:01:03;;;;;;;11.32;6.60;;;15.40;44.10;;;;;;5051384;28;20512;-68
2021/05/05 07:03:29;;;;;;;33.85;20.17;;;15.50;42.50;;;;;;5051191;28;20434;-69
2021/05/05 07:05:54;;;;;;;26.02;15.05;;;15.40;44.60;;;;;;5051093;28;20108;-67
2021/05/05 07:08:20;;;;;;;6.13;3.45;;;15.00;44.30;;;;;;5051171;28;20025;-66
2021/05/05 07:10:45;;;;;;;10.23;6.22;;;14.70;45.00;;;;;;5050959;28;20040;-69
2021/05/05 07:13:11;;;;;;;9.48;5.15;;;15.00;44.00;;;;;;5050780;28;20120;-66
2021/05/05 07:15:39;;;;;;;6.75;4.50;;;15.10;43.50;;;;;;5053702;28;20115;-66
2021/05/05 07:18:04;;;;;;;17.42;9.57;;;15.10;42.80;;;;;;5055013;28;20108;-66
2021/05/05 07:20:30;;;;;;;8.02;4.25;;;15.30;42.40;;;;;;5053833;28;20025;-67
2021/05/05 07:22:56;;;;;;;20.58;11.65;;;15.60;41.80;;;;;;5053688;28;20037;-66
2021/05/05 07:25:21;;;;;;;19.15;10.48;;;16.20;39.80;;;;;;5055321;28;20032;-67
2021/05/05 07:27:47;;;;;;;12.63;6.75;;;16.80;38.00;;;;;;5054672;28;20032;-67
2021/05/05 07:30:13;;;;;;;12.77;7.00;;;16.90;37.50;;;;;;5054990;28;20100;-67
2021/05/05 07:32:39;;;;;;;5.47;2.38;;;16.50;36.80;;;;;;5054806;28;20557;-67
2021/05/05 07:35:08;;;;;;;17.60;10.30;;;16.20;36.80;;;;;;5055055;28;20027;-68
2021/05/05 07:48:14;;;;;;;47.40;25.13;;;14.40;41.30;;;;;;5054924;28;20025;-67
2021/05/05 07:50:39;;;;;;;26.38;14.13;;;14.10;41.80;;;;;;5053731;28;20085;-68
2021/05/05 07:53:06;;;;;;;29.38;14.02;;;14.20;41.40;;;;;;5054593;28;20100;-67
2021/05/05 07:55:32;;;;;;;11.75;5.18;;;14.00;41.00;;;;;;5054404;28;20029;-67
2021/05/05 07:57:58;;;;;;;26.35;12.65;;;13.90;41.60;;;;;;5059386;28;20016;-67
2021/05/05 08:00:24;;;;;;;55.92;27.55;;;13.70;42.40;;;;;;5074723;28;20012;-68
2021/05/05 08:02:50;;;;;;;29.48;15.50;;;14.00;43.10;;;;;;5074587;28;20063;-69
2021/05/05 08:05:18;;;;;;;53.78;26.40;;;14.90;40.90;;;;;;5072626;28;20028;-69
2021/05/05 08:07:44;;;;;;;67.18;35.83;;;16.40;39.80;;;;;;5052456;28;20035;-69
2021/05/05 08:10:10;;;;;;;19.15;10.82;;;17.90;37.00;;;;;;5054046;28;20021;-68
2021/05/05 08:12:36;;;;;;;16.55;7.78;;;;;;;;;;5086707;28;20082;-70
2021/05/05 08:15:03;;;;;;;24.50;11.02;;;20.70;31.10;;;;;;5053641;28;20029;-67
2021/05/05 08:17:29;;;;;;;27.98;17.05;;;22.60;28.40;;;;;;5054074;28;20033;-69
2021/05/05 08:19:54;;;;;;;56.45;28.02;;;23.00;27.80;;;;;;5054360;28;20621;-68
2021/05/05 08:22:20;;;;;;;24.02;14.18;;;23.70;26.90;;;;;;5053842;28;20021;-68
2021/05/05 08:24:46;;;;;;;22.42;10.25;;;23.80;25.60;;;;;;5053086;28;20017;-68
2021/05/05 08:27:11;;;;;;;32.13;18.95;;;23.60;25.90;;;;;;5053918;28;20060;-67
2021/05/05 08:29:37;;;;;;;17.95;10.55;;;24.30;25.50;;;;;;5054124;28;20029;-68
2021/05/05 08:32:03;;;;;;;43.80;26.90;;;24.90;24.00;;;;;;5054124;28;20033;-68
2021/05/05 08:34:29;;;;;;;30.67;19.33;;;24.10;25.70;;;;;;5054328;28;20100;-69
2021/05/05 08:36:56;;;;;;;19.58;11.85;;;23.80;25.60;;;;;;5053540;28;20112;-68
2021/05/05 08:39:22;;;;;;;19.50;9.65;;;22.80;25.50;;;;;;5052564;28;20032;-68
2021/05/05 08:41:48;;;;;;;24.50;14.07;;;22.10;27.40;;;;;;5053842;28;20055;-68
2021/05/05 08:44:16;;;;;;;43.15;25.48;;;20.90;27.70;;;;;;5056146;28;20348;-68
2021/05/05 08:46:45;;;;;;;29.70;17.08;;;19.80;29.60;;;;;;5056122;28;20029;-68
2021/05/05 08:49:13;;;;;;;34.35;18.17;;;18.70;31.00;;;;;;5057332;28;20181;-68
2021/05/05 08:51:41;;;;;;;18.48;7.07;;;17.70;33.30;;;;;;5058840;28;20053;-67
2021/05/05 08:54:10;;;;;;;57.78;31.85;;;17.00;33.30;;;;;;5056752;28;20128;-67
2021/05/05 08:56:36;;;;;;;37.00;21.02;;;16.60;35.90;;;;;;5054668;28;20050;-68
2021/05/05 08:59:06;;;;;;;30.60;15.85;;;16.20;35.80;;;;;;5069004;28;20032;-67
2021/05/05 09:01:32;;;;;;;22.20;11.75;;;15.80;35.00;;;;;;5074650;28;20459;-69
2021/05/05 09:03:59;;;;;;;33.67;15.57;;;15.70;34.40;;;;;;5074221;28;20107;-69
2021/05/05 09:06:46;;;;;;;15.85;8.55;;;15.40;35.50;;;;;;5073672;28;20059;-68
2021/05/05 09:09:31;;;;;;;23.35;11.20;;;15.10;34.90;;;;;;5073454;28;20020;-66
2021/05/05 09:11:56;;;;;;;30.00;15.88;;;15.10;34.30;;;;;;5073142;28;20029;-66
2021/05/05 09:14:22;;;;;;;83.47;38.00;;;15.20;34.30;;;;;;5072899;28;20031;-66
2021/05/05 09:16:48;;;;;;;7.57;3.40;;;15.20;34.90;;;;;;5072643;28;20116;-68
2021/05/05 09:19:16;;;;;;;34.20;14.88;;;15.40;33.70;;;;;;5073182;28;20016;-68
2021/05/05 09:21:49;;;;;;;23.60;10.63;;;15.70;33.20;;;;;;5073240;28;20028;-67
2021/05/05 09:24:30;;;;;;;45.30;20.55;;;15.50;32.80;;;;;;5073466;28;20021;-69
2021/05/05 09:27:06;;;;;;;35.08;15.68;;;15.40;33.40;;;;;;5073000;28;20021;-68
2021/05/05 09:29:44;;;;;;;40.30;21.25;;;15.30;34.80;;;;;;5073072;28;20029;-67
2021/05/05 09:32:11;;;;;;;27.65;13.95;;;16.10;34.00;;;;;;5073032;28;20074;-69
2021/05/05 09:34:39;;;;;;;38.30;19.45;;;17.00;31.40;;;;;;5072845;28;20414;-68
2021/05/05 09:37:08;;;;;;;20.02;9.10;;;17.20;29.80;;;;;;5072656;28;20108;-68
2021/05/05 09:39:39;;;;;;;23.00;11.18;;;18.30;29.10;;;;;;5071066;28;20070;-68
2021/05/05 09:42:18;;;;;;;12.50;5.45;;;19.00;27.60;;;;;;5072627;28;20023;-68
2021/05/05 09:45:05;;;;;;;49.90;25.38;;;18.70;27.70;;;;;;5072740;28;20090;-68
2021/05/05 09:47:54;;;;;;;20.90;10.52;;;17.50;29.50;;;;;;5072029;28;20387;-68
2021/05/05 09:50:31;;;;;;;135.30;71.10;;;17.30;30.60;;;;;;5072225;28;20108;-67
2021/05/05 09:53:19;;;;;;;135.50;71.05;;;16.50;34.60;;;;;;5064414;28;20033;-68
2021/05/05 09:56:05;;;;;;;56.92;28.35;;;16.40;36.50;;;;;;5036098;28;20036;-68
2021/05/05 09:58:36;;;;;;;47.47;22.75;;;16.00;35.20;;;;;;5060768;28;20490;-68
2021/05/05 10:01:10;;;;;;;23.13;11.32;;;15.80;35.00;;;;;;5058039;28;20036;-67
2021/05/05 10:04:04;;;;;;;33.88;14.77;;;15.50;36.80;;;;;;5052432;28;20135;-67
2021/05/05 10:06:40;;;;;;;58.90;28.05;;;15.40;37.20;;;;;;5044969;28;20471;-68
2021/05/05 10:09:08;;;;;;;49.47;25.27;;;15.60;39.90;;;;;;5051760;28;20433;-69
2021/05/05 10:11:46;;;;;;;16.63;6.15;;;15.70;37.20;;;;;;5051891;28;20029;-67
2021/05/05 10:14:15;;;;;;;16.85;7.25;;;15.40;38.40;;;;;;5052009;28;20078;-70
2021/05/05 10:16:47;;;;;;;23.17;11.07;;;15.20;38.20;;;;;;5051634;28;20467;-71
2021/05/05 10:19:21;;;;;;;24.38;11.52;;;15.20;38.40;;;;;;5052182;28;20017;-69
2021/05/05 10:21:55;;;;;;;23.30;9.23;;;15.20;39.40;;;;;;5051951;28;20024;-71
2021/05/05 10:24:25;;;;;;;26.27;12.35;;;15.50;38.30;;;;;;5051736;28;20099;-71
2021/05/05 10:26:51;;;;;;;15.20;6.05;;;15.70;38.90;;;;;;5050309;28;20032;-69
2021/05/05 10:29:17;;;;;;;28.63;14.00;;;15.80;36.90;;;;;;5051888;28;20032;-69
2021/05/05 10:31:51;;;;;;;23.98;12.00;;;15.70;35.90;;;;;;5051969;28;20104;-69
2021/05/05 10:34:21;;;;;;;21.10;10.38;;;15.90;36.30;;;;;;5051927;28;20075;-69
2021/05/05 10:36:49;;;;;;;10.80;5.65;;;16.00;35.50;;;;;;5051402;28;20096;-69
2021/05/05 10:39:17;;;;;;;14.02;6.53;;;16.30;35.30;;;;;;5052013;28;20021;-69
2021/05/05 10:41:58;;;;;;;15.88;8.32;;;16.50;33.80;;;;;;5051506;28;20036;-69
2021/05/05 10:44:34;;;;;;;16.00;7.28;;;16.70;33.60;;;;;;5043398;28;20020;-69
2021/05/05 10:47:27;;;;;;;12.05;5.78;;;16.50;32.80;;;;;;5051262;28;20029;-69
2021/05/05 10:49:58;;;;;;;16.20;7.78;;;16.00;33.20;;;;;;5058322;28;20047;-68
2021/05/05 10:52:25;;;;;;;12.85;6.18;;;15.50;34.00;;;;;;5070059;28;20017;-70
2021/05/05 10:54:53;;;;;;;12.98;6.28;;;15.30;34.20;;;;;;5053891;28;20033;-70
2021/05/05 10:57:23;;;;;;;13.63;6.20;;;15.00;35.10;;;;;;5050969;28;20044;-68
2021/05/05 10:59:57;;;;;;;16.90;8.80;;;15.00;35.20;;;;;;5031430;28;20104;-68
2021/05/05 11:02:38;;;;;;;14.52;6.57;;;14.80;36.10;;;;;;5030278;28;20396;-70
2021/05/05 11:05:12;;;;;;;10.57;5.00;;;14.70;36.80;;;;;;5045698;28;20036;-70
2021/05/05 11:07:55;;;;;;;15.57;9.60;;;14.90;35.40;;;;;;5051169;28;20037;-71
2021/05/05 11:10:36;;;;;;;428.42;243.88;;;15.20;35.50;;;;;;5051347;28;20021;-71
2021/05/05 11:13:25;;;;;;;91.35;49.10;;;15.50;36.20;;;;;;5049026;28;20025;-70
2021/05/05 11:15:50;;;;;;;22.40;10.25;;;15.60;35.00;;;;;;5050798;28;20032;-71
2021/05/05 11:18:28;;;;;;;54.78;28.80;;;15.50;35.10;;;;;;5047430;28;20026;-71
2021/05/05 11:21:00;;;;;;;32.42;17.33;;;15.30;35.60;;;;;;5041139;28;20028;-70
2021/05/05 11:23:39;;;;;;;13.55;6.75;;;15.20;35.20;;;;;;5051672;28;20102;-70
2021/05/05 11:26:24;;;;;;;24.70;13.02;;;15.20;35.30;;;;;;5031724;28;20025;-69
2021/05/05 11:28:56;;;;;;;17.73;9.57;;;15.40;35.00;;;;;;5031560;28;20531;-69
2021/05/05 11:31:40;;;;;;;52.22;27.20;;;15.50;35.10;;;;;;5031176;28;20070;-70
2021/05/05 11:34:07;;;;;;;17.23;8.70;;;15.50;38.70;;;;;;5031377;28;20053;-69
2021/05/05 11:36:32;;;;;;;21.10;10.68;;;15.40;35.40;;;;;;5030691;28;20022;-69
2021/05/05 11:38:58;;;;;;;120.85;78.00;;;15.20;35.40;;;;;;5032496;28;20033;-70
2021/05/05 11:41:25;;;;;;;52.88;33.22;;;15.10;37.10;;;;;;5041132;28;20028;-71
2021/05/05 11:43:51;;;;;;;37.30;20.40;;;15.00;37.10;;;;;;5060948;28;20116;-70
2021/05/05 11:46:21;;;;;;;403.20;232.75;;;14.40;42.10;;;;;;5049418;28;20120;-71
2021/05/05 11:48:47;;;;;;;11.32;5.55;;;13.70;49.50;;;;;;5051197;28;20025;-70
2021/05/05 11:51:20;;;;;;;22.95;11.82;;;13.10;54.20;;;;;;5049516;28;20032;-70
2021/05/05 11:53:45;;;;;;;34.30;18.77;;;13.10;57.40;;;;;;5051046;28;20131;-71
2021/05/05 11:56:23;;;;;;;10.80;5.32;;;13.20;54.70;;;;;;5046256;28;20037;-69
2021/05/05 11:58:56;;;;;;;12.88;7.05;;;13.40;49.20;;;;;;5045524;28;20092;-70
2021/05/05 12:01:38;;;;;;;20.77;10.00;;;13.70;47.00;;;;;;5052282;28;20032;-69
2021/05/05 12:04:20;;;;;;;23.92;12.68;;;14.10;42.10;;;;;;5054105;28;20025;-69
2021/05/05 12:06:54;;;;;;;23.77;10.07;;;14.50;40.50;;;;;;5054428;28;20032;-68
2021/05/05 12:09:25;;;;;;;18.75;7.65;;;14.70;39.80;;;;;;5050358;28;20037;-67
2021/05/05 12:12:09;;;;;;;;;;;14.50;38.10;;;;;;5042577;28;20032;-67
2021/05/05 12:14:35;;;;;;;7.18;2.85;;;14.30;37.60;;;;;;5034357;28;19905;-67
2021/05/05 12:17:17;;;;;;;5.72;3.47;;;14.30;38.10;;;;;;5041568;28;20025;-69
2021/05/05 12:20:04;;;;;;;14.85;7.13;;;14.30;38.60;;;;;;5052961;28;20444;-67
2021/05/05 12:22:33;;;;;;;5.50;2.97;;;14.50;38.70;;;;;;5052791;28;20112;-67
2021/05/05 12:25:15;;;;;;;4.50;2.15;;;14.40;37.80;;;;;;5053842;28;20086;-67
2021/05/05 12:28:19;;;;;;;3.50;1.98;;;14.50;38.60;;;;;;5052506;28;20075;-67
2021/05/05 12:30:54;;;;;;;8.75;3.83;;;14.60;36.20;;;;;;4956818;28;20035;-67
2021/05/05 12:33:32;;;;;;;8.65;3.83;;;14.50;35.30;;;;;;5043772;28;20510;-67
2021/05/05 12:36:00;;;;;;;9.93;5.18;;;14.50;35.40;;;;;;5054041;28;20533;-67
2021/05/05 12:38:25;;;;;;;4.57;2.10;;;14.40;34.90;;;;;;5053750;28;20036;-67
2021/05/05 12:41:03;;;;;;;6.43;1.77;;;14.60;34.10;;;;;;5053808;28;20040;-67
2021/05/05 12:43:29;;;;;;;10.07;5.20;;;14.60;34.80;;;;;;5048201;28;20045;-66
2021/05/05 12:45:57;;;;;;;5.10;2.15;;;14.80;35.80;;;;;;5058571;28;20028;-68
2021/05/05 12:48:39;;;;;;;10.50;3.58;;;14.90;33.80;;;;;;5071533;28;20028;-68
2021/05/05 12:51:09;;;;;;;17.23;5.40;;;14.90;34.40;;;;;;5033065;28;20033;-68
2021/05/05 12:53:59;;;;;;;7.55;2.67;;;14.40;39.60;;;;;;5051503;28;20474;-67
2021/05/05 12:56:45;;;;;;;16.08;4.70;;;13.60;43.80;;;;;;5051418;28;20029;-68
2021/05/05 12:59:19;;;;;;;7.78;3.28;;;13.00;47.10;;;;;;5067493;28;20099;-67
2021/05/05 13:01:46;;;;;;;8.50;3.22;;;12.70;47.80;;;;;;5065044;28;20037;-68